ADDS METAR Data INFO
IDs: Format: Raw Decoded Include TAF

Data at: 1732 UTC 23 Jul 2018

KCRW 231654Z VRB04KT 10SM BKN034 BKN060 BKN120 27/19 A2988 RMK AO2 SLP109 T02670189
KCRW 231554Z 18004KT 10SM SCT030 SCT180 27/19 A2988 RMK AO2 SLP109 T02670189
KCRW 231454Z 16004KT 10SM SCT025 SCT180 26/19 A2988 RMK AO2 SLP107 T02560194 51006
KCRW 231354Z 11006KT 10SM FEW018 SCT200 24/19 A2987 RMK AO2 SLP106 T02390189
KCRW 231300Z 00000KT 6SM BR SCT003 SCT240 21/20 A2987 RMK AO2 T02060200
KCRW 231254Z 00000KT 3/4SM BR SCT002 SCT240 20/20 A2987 RMK AO2 SLP107 T02000200 RVRNO $
KCRW 231154Z 10003KT 3/4SM BR BKN002 19/19 A2986 RMK AO2 SLP103 70157 T01890189 10194 20183 51012 RVRNO $
KCRW 231054Z 00000KT 3/4SM BR VV002 19/19 A2985 RMK AO2 SLP100 T01890189 RVRNO $
KCRW 231050Z 00000KT 3/4SM BR BKN002 18/18 A2985 RMK AO2 RVRNO $
KCRW 230954Z 00000KT 3/4SM BR SCT002 BKN021 19/19 A2982 RMK AO2 SLP091 T01890189 RVRNO $
KCRW 230952Z 00000KT 3/4SM BR SCT002 BKN021 19/19 A2982 RMK AO2 RVRNO $
KCRW 230854Z 00000KT 1/8SM FG VV002 19/19 A2981 RMK AO2 SLP085 T01890189 55000 RVRNO $
KCRW 230801Z 00000KT 1/4SM FG VV001 19/19 A2979 RMK AO2 T01890189 RVRNO $
KCRW 230754Z 06003KT 1/8SM FG BKN002 19/19 A2979 RMK AO2 SLP079 T01890189 RVRNO $
KCRW 230654Z 07003KT 1/8SM FG BKN002 19/19 A2980 RMK AO2 SLP083 T01940194 RVRNO $
KCRW 230554Z 00000KT 1/8SM FG BKN002 19/19 A2981 RMK AO2 SLP086 60028 T01940194 10222 20194 58005 RVRNO $
KCRW 230532Z 00000KT 1/8SM FG BKN002 19/19 A2981 RMK AO2 T01940194 RVRNO $
KCRW 230518Z 00000KT 2SM BR BKN002 20/20 A2981 RMK AO2 T02000200 $
KCRW 230454Z 00000KT 2SM BR SCT000 SCT045 20/20 A2982 RMK AO2 SLP089 FG SCT000 T02000200 402330183 $
KCRW 230354Z 12006KT 2SM BR SCT000 BKN075 20/20 A2982 RMK AO2 SLP090 FG SCT000 T02000200 $
KCRW 230340Z 00000KT 1SM BR FEW000 SCT075 20/20 A2981 RMK AO2 FG FEW000 T02000200 RVRNO $
KCRW 230254Z 11004KT 1SM BR FEW012 SCT030 SCT100 21/21 A2982 RMK AO2 RAB32E51 TSE32 SLP091 CB DSNT N P0006 60028 T02060206 53013 RVRNO $
KCRW 230233Z 22005KT 1SM RA BR FEW012 BKN030 BKN100 21/21 A2982 RMK AO2 LTG DSNT N RAB32 TSE32 CB DSNT N P0000 T02110211 RVRNO $
KCRW 230154Z 00000KT 9SM TS FEW012 BKN030CB BKN100 21/21 A2980 RMK AO2 LTG DSNT N AND W RAE19 TSB47 SLP083 OCNL LTGIC NW TS NW MOV NE CB DSNT W P0022 T02110206 $
KCRW 230148Z 00000KT 9SM TS FEW012 BKN030CB BKN100 21/21 A2980 RMK AO2 RAE19 TSB47 OCNL LTGIC NW TS NW MOV NE CB DSNT W P0022 $
KCRW 230118Z 04005KT 7SM RA BKN030 BKN050 OVC085 21/21 A2979 RMK AO2 LTG DSNT W CB DSNT W P0022 T02110206 $
KCRW 230054Z 21006KT 2SM RA BR BKN030 BKN050 OVC085 22/21 A2979 RMK AO2 RAB49 SLP078 CB DSNT SW-W VLY FG P0000 T02170211 $
KCRW 222354Z 06004KT 10SM FEW050 SCT090 SCT140 22/21 A2976 RMK AO2 LTG DSNT W SLP070 CB DSNT E AND W 60009 T02220211 10233 20211 53008 $
KCRW 222254Z 06004KT 10SM FEW040 SCT090 SCT130 BKN200 23/22 A2975 RMK AO2 SLP064 T02280217 $
KCRW 222154Z 00000KT 10SM FEW020 SCT050 SCT075 BKN130 23/22 A2973 RMK AO2 LTG DSNT NE TSE30 SLP061 TS MOVD NE CB DSNT NE AND E T02280222 $
KCRW 222132Z 03003KT 10SM FEW016 SCT040 SCT075 BKN130 23/22 A2974 RMK AO2 LTG DSNT E TSE30 TS MOVD NE CB DSNT E AND SE T02280217 $
KCRW 222054Z 08006KT 9SM TS FEW013 SCT039CB SCT070 BKN130 23/21 A2974 RMK AO2 LTG DSNT E AND SE RAB29E51 SLP062 OCNL LTGIC E TS E MOV NE CB DSNT E AND SE P0002 60009 T02280211 55003 $
KCRW 221954Z 36003KT 10SM TS FEW010 SCT033CB SCT085 BKN130 23/21 A2974 RMK AO2 TSE20E39B40 SLP061 OCNL LTGIC N AND SE TS N AND SE MOV NE T02280211 $
KCRW 221944Z 00000KT 10SM TS FEW010 SCT033CB BKN085 BKN130 22/21 A2974 RMK AO2 TSE20E39B40 OCNL LTGIC N AND SE TS N AND SE MOV NE T02220206 $
KCRW 221940Z 07004KT 10SM TS FEW010 SCT045 BKN085 OVC130 22/21 A2973 RMK AO2 TSE20E39B40 TS DSIPTD CB DSNT ALQDS OCNL BINOVC T02220206 $
KCRW 221920Z 00000KT 10SM FEW010 SCT045 BKN085 OVC130 22/21 A2973 RMK AO2 TSE20 TS DSIPTD CB DSNT ALQDS OCNL BINOVC T02220206 $
KCRW 221854Z 00000KT 8SM TS SCT010 SCT042CB BKN080 OVC130 22/21 A2974 RMK AO2 RAE25 TSB27 SLP063 OCNL LTGIC N-E TS N-E MOV NE OCNL BINOVC VCSH P0007 T02170206 $
KCRW 221827Z 00000KT 6SM TS BR SCT010 BKN030CB OVC085 21/20 A2974 RMK AO2 RAE25 TSB27 OCNL LTGIC N-E TS N-E MOV NE VCSH P0007 T02110200 $
KCRW 221754Z 24009G16KT 5SM +RA BR SCT010 BKN030 OVC085 21/20 A2975 RMK AO2 RAB42 SLP065 OCNL BINOVC P0022 60120 T02110200 10233 20194 53001 $